CheckWX is a tool to help pilots better visualize weather data.  It is not intended as a substitute for an official pre-flight weather briefing.

12:01:22 UTC

LTAL TAF
Kastamonu
Kastamonu, Turkey
TAF LTAL 261040Z 2612/2621 02006KT 9999 SCT030

Apr-26@
12:00 UTC

Apr-26 @ 12:00 UTC

Apr-26@
21:00 UTC

Apr-26 @ 21:00 UTC

TAF LTAL 261040Z 2612/2621 02006KT 9999 SCT030
Wind
  • 020° at 6 KTS
Cloud Levels
  • Scattered at 3,000' AGL